sensor_id;sensor_type;location;lat;lon;timestamp;temperature;humidity
20845;DHT22;10583;49.084;8.646;2024-03-02T00:00:51;3.40;99.90
20845;DHT22;10583;49.084;8.646;2024-03-02T00:03:17;3.30;99.90
20845;DHT22;10583;49.084;8.646;2024-03-02T00:05:44;3.30;99.90
20845;DHT22;10583;49.084;8.646;2024-03-02T00:08:22;3.30;99.90
20845;DHT22;10583;49.084;8.646;2024-03-02T00:10:49;3.30;99.90
20845;DHT22;10583;49.084;8.646;2024-03-02T00:13:16;3.20;99.90
20845;DHT22;10583;49.084;8.646;2024-03-02T00:15:52;3.20;99.90
20845;DHT22;10583;49.084;8.646;2024-03-02T00:18:20;3.20;99.90
20845;DHT22;10583;49.084;8.646;2024-03-02T00:20:47;3.20;99.90
20845;DHT22;10583;49.084;8.646;2024-03-02T00:23:15;3.20;99.90
20845;DHT22;10583;49.084;8.646;2024-03-02T00:25:44;3.30;99.90
20845;DHT22;10583;49.084;8.646;2024-03-02T00:28:16;3.20;99.90
20845;DHT22;10583;49.084;8.646;2024-03-02T00:31:01;3.20;99.90
20845;DHT22;10583;49.084;8.646;2024-03-02T00:33:31;3.20;99.90
20845;DHT22;10583;49.084;8.646;2024-03-02T00:35:58;3.20;99.90
20845;DHT22;10583;49.084;8.646;2024-03-02T00:38:26;3.20;99.90
20845;DHT22;10583;49.084;8.646;2024-03-02T00:40:54;3.20;99.90
20845;DHT22;10583;49.084;8.646;2024-03-02T00:43:43;3.20;99.90
20845;DHT22;10583;49.084;8.646;2024-03-02T00:46:15;3.20;99.90
20845;DHT22;10583;49.084;8.646;2024-03-02T00:48:48;3.10;99.90
20845;DHT22;10583;49.084;8.646;2024-03-02T00:51:17;3.10;99.90
20845;DHT22;10583;49.084;8.646;2024-03-02T00:53:44;3.00;99.90
20845;DHT22;10583;49.084;8.646;2024-03-02T00:56:11;3.00;99.90
20845;DHT22;10583;49.084;8.646;2024-03-02T00:58:39;3.00;99.90
20845;DHT22;10583;49.084;8.646;2024-03-02T01:01:06;3.00;99.90
20845;DHT22;10583;49.084;8.646;2024-03-02T01:03:34;3.00;99.90
20845;DHT22;10583;49.084;8.646;2024-03-02T01:06:03;3.00;99.90
20845;DHT22;10583;49.084;8.646;2024-03-02T01:08:30;2.90;99.90
20845;DHT22;10583;49.084;8.646;2024-03-02T01:10:56;2.90;99.90
20845;DHT22;10583;49.084;8.646;2024-03-02T01:13:23;2.80;99.90
20845;DHT22;10583;49.084;8.646;2024-03-02T01:15:50;2.80;99.90
20845;DHT22;10583;49.084;8.646;2024-03-02T01:18:17;2.80;99.90
20845;DHT22;10583;49.084;8.646;2024-03-02T01:20:45;2.80;99.90
20845;DHT22;10583;49.084;8.646;2024-03-02T01:23:11;2.70;99.90
20845;DHT22;10583;49.084;8.646;2024-03-02T01:25:38;2.70;99.90
20845;DHT22;10583;49.084;8.646;2024-03-02T01:28:05;2.70;99.90
20845;DHT22;10583;49.084;8.646;2024-03-02T01:30:32;2.70;99.90
20845;DHT22;10583;49.084;8.646;2024-03-02T01:32:59;2.70;99.90
20845;DHT22;10583;49.084;8.646;2024-03-02T01:35:25;2.60;99.90
20845;DHT22;10583;49.084;8.646;2024-03-02T01:37:54;2.50;99.90
20845;DHT22;10583;49.084;8.646;2024-03-02T01:40:21;2.60;99.90
20845;DHT22;10583;49.084;8.646;2024-03-02T01:42:51;2.50;99.90
20845;DHT22;10583;49.084;8.646;2024-03-02T01:45:18;2.50;99.90
20845;DHT22;10583;49.084;8.646;2024-03-02T01:47:45;2.50;99.90
20845;DHT22;10583;49.084;8.646;2024-03-02T01:50:12;2.50;99.90
20845;DHT22;10583;49.084;8.646;2024-03-02T01:52:38;2.50;99.90
20845;DHT22;10583;49.084;8.646;2024-03-02T01:55:07;2.50;99.90
20845;DHT22;10583;49.084;8.646;2024-03-02T01:57:34;2.50;99.90
20845;DHT22;10583;49.084;8.646;2024-03-02T02:00:01;2.50;99.90
20845;DHT22;10583;49.084;8.646;2024-03-02T02:02:28;2.50;99.90
20845;DHT22;10583;49.084;8.646;2024-03-02T02:04:55;2.50;99.90
20845;DHT22;10583;49.084;8.646;2024-03-02T02:07:22;2.50;99.90
20845;DHT22;10583;49.084;8.646;2024-03-02T02:09:49;2.40;99.90
20845;DHT22;10583;49.084;8.646;2024-03-02T02:12:17;2.40;99.90
20845;DHT22;10583;49.084;8.646;2024-03-02T02:14:47;2.40;99.90
20845;DHT22;10583;49.084;8.646;2024-03-02T02:17:15;2.30;99.90
20845;DHT22;10583;49.084;8.646;2024-03-02T02:19:42;2.30;99.90
20845;DHT22;10583;49.084;8.646;2024-03-02T02:22:10;2.20;99.90
20845;DHT22;10583;49.084;8.646;2024-03-02T02:24:39;2.20;99.90
20845;DHT22;10583;49.084;8.646;2024-03-02T02:27:06;2.10;99.90
20845;DHT22;10583;49.084;8.646;2024-03-02T02:29:33;2.10;99.90
20845;DHT22;10583;49.084;8.646;2024-03-02T02:32:00;2.10;99.90
20845;DHT22;10583;49.084;8.646;2024-03-02T02:34:27;2.00;99.90
20845;DHT22;10583;49.084;8.646;2024-03-02T02:36:53;2.00;99.90
20845;DHT22;10583;49.084;8.646;2024-03-02T02:39:22;2.00;99.90
20845;DHT22;10583;49.084;8.646;2024-03-02T02:41:49;1.90;99.90
20845;DHT22;10583;49.084;8.646;2024-03-02T02:44:16;1.90;99.90
20845;DHT22;10583;49.084;8.646;2024-03-02T02:46:42;1.90;99.90
20845;DHT22;10583;49.084;8.646;2024-03-02T02:49:09;1.90;99.90
20845;DHT22;10583;49.084;8.646;2024-03-02T02:51:36;1.90;99.90
20845;DHT22;10583;49.084;8.646;2024-03-02T02:54:02;1.90;99.90
20845;DHT22;10583;49.084;8.646;2024-03-02T02:56:31;1.90;99.90
20845;DHT22;10583;49.084;8.646;2024-03-02T02:58:57;1.90;99.90
20845;DHT22;10583;49.084;8.646;2024-03-02T03:01:24;1.90;99.90
20845;DHT22;10583;49.084;8.646;2024-03-02T03:03:51;1.90;99.90
20845;DHT22;10583;49.084;8.646;2024-03-02T03:06:17;1.80;99.90
20845;DHT22;10583;49.084;8.646;2024-03-02T03:08:44;1.80;99.90
20845;DHT22;10583;49.084;8.646;2024-03-02T03:11:11;1.90;99.90
20845;DHT22;10583;49.084;8.646;2024-03-02T03:13:39;1.80;99.90
20845;DHT22;10583;49.084;8.646;2024-03-02T03:16:06;1.80;99.90
20845;DHT22;10583;49.084;8.646;2024-03-02T03:18:32;1.80;99.90
20845;DHT22;10583;49.084;8.646;2024-03-02T03:20:59;1.80;99.90
20845;DHT22;10583;49.084;8.646;2024-03-02T03:23:26;1.70;99.90
20845;DHT22;10583;49.084;8.646;2024-03-02T03:25:53;1.70;99.90
20845;DHT22;10583;49.084;8.646;2024-03-02T03:28:19;1.70;99.90
20845;DHT22;10583;49.084;8.646;2024-03-02T03:30:47;1.70;99.90
20845;DHT22;10583;49.084;8.646;2024-03-02T03:33:14;1.70;99.90
20845;DHT22;10583;49.084;8.646;2024-03-02T03:35:41;1.70;99.90
20845;DHT22;10583;49.084;8.646;2024-03-02T03:38:07;1.80;99.90
20845;DHT22;10583;49.084;8.646;2024-03-02T03:40:34;1.80;99.90
20845;DHT22;10583;49.084;8.646;2024-03-02T03:43:01;1.80;99.90
20845;DHT22;10583;49.084;8.646;2024-03-02T03:45:28;1.80;99.90
20845;DHT22;10583;49.084;8.646;2024-03-02T03:47:57;1.70;99.90
20845;DHT22;10583;49.084;8.646;2024-03-02T03:50:24;1.70;99.90
20845;DHT22;10583;49.084;8.646;2024-03-02T03:52:50;1.70;99.90
20845;DHT22;10583;49.084;8.646;2024-03-02T03:55:17;1.70;99.90
20845;DHT22;10583;49.084;8.646;2024-03-02T03:57:44;1.70;99.90
20845;DHT22;10583;49.084;8.646;2024-03-02T04:00:12;1.70;99.90
20845;DHT22;10583;49.084;8.646;2024-03-02T04:02:38;1.70;99.90
20845;DHT22;10583;49.084;8.646;2024-03-02T04:05:07;1.70;99.90
20845;DHT22;10583;49.084;8.646;2024-03-02T04:07:36;1.80;99.90
20845;DHT22;10583;49.084;8.646;2024-03-02T04:10:07;1.70;99.90
20845;DHT22;10583;49.084;8.646;2024-03-02T04:12:35;1.60;99.90
20845;DHT22;10583;49.084;8.646;2024-03-02T04:15:02;1.70;99.90
20845;DHT22;10583;49.084;8.646;2024-03-02T04:17:31;1.70;99.90
20845;DHT22;10583;49.084;8.646;2024-03-02T04:19:58;1.70;99.90
20845;DHT22;10583;49.084;8.646;2024-03-02T04:22:27;1.70;99.90
20845;DHT22;10583;49.084;8.646;2024-03-02T04:24:54;1.70;99.90
20845;DHT22;10583;49.084;8.646;2024-03-02T04:27:21;1.80;99.90
20845;DHT22;10583;49.084;8.646;2024-03-02T04:29:48;1.80;99.90
20845;DHT22;10583;49.084;8.646;2024-03-02T04:32:15;1.80;99.90
20845;DHT22;10583;49.084;8.646;2024-03-02T04:34:41;1.90;99.90
20845;DHT22;10583;49.084;8.646;2024-03-02T04:37:08;2.00;99.90
20845;DHT22;10583;49.084;8.646;2024-03-02T04:39:36;2.00;99.90
20845;DHT22;10583;49.084;8.646;2024-03-02T04:42:03;2.00;99.90
20845;DHT22;10583;49.084;8.646;2024-03-02T04:44:30;2.00;99.90
20845;DHT22;10583;49.084;8.646;2024-03-02T04:46:57;2.00;99.90
20845;DHT22;10583;49.084;8.646;2024-03-02T04:49:24;1.90;99.90
20845;DHT22;10583;49.084;8.646;2024-03-02T04:51:50;1.90;99.90
20845;DHT22;10583;49.084;8.646;2024-03-02T04:54:17;2.00;99.90
20845;DHT22;10583;49.084;8.646;2024-03-02T04:56:45;2.00;99.90
20845;DHT22;10583;49.084;8.646;2024-03-02T04:59:15;2.00;99.90
20845;DHT22;10583;49.084;8.646;2024-03-02T05:01:42;2.00;99.90
20845;DHT22;10583;49.084;8.646;2024-03-02T05:04:09;2.10;99.90
20845;DHT22;10583;49.084;8.646;2024-03-02T05:06:37;2.20;99.90
20845;DHT22;10583;49.084;8.646;2024-03-02T05:09:04;2.40;99.90
20845;DHT22;10583;49.084;8.646;2024-03-02T05:11:31;2.50;99.90
20845;DHT22;10583;49.084;8.646;2024-03-02T05:14:16;2.60;99.90
20845;DHT22;10583;49.084;8.646;2024-03-02T05:16:43;2.60;99.90
20845;DHT22;10583;49.084;8.646;2024-03-02T05:19:09;2.60;99.90
20845;DHT22;10583;49.084;8.646;2024-03-02T05:21:36;2.60;99.90
20845;DHT22;10583;49.084;8.646;2024-03-02T05:24:03;2.60;99.90
20845;DHT22;10583;49.084;8.646;2024-03-02T05:26:30;2.60;99.90
20845;DHT22;10583;49.084;8.646;2024-03-02T05:28:56;2.50;99.90
20845;DHT22;10583;49.084;8.646;2024-03-02T05:31:24;2.60;99.90
20845;DHT22;10583;49.084;8.646;2024-03-02T05:33:51;2.50;99.90
20845;DHT22;10583;49.084;8.646;2024-03-02T05:36:18;2.50;99.90
20845;DHT22;10583;49.084;8.646;2024-03-02T05:38:46;2.50;99.90
20845;DHT22;10583;49.084;8.646;2024-03-02T05:41:12;2.50;99.90
20845;DHT22;10583;49.084;8.646;2024-03-02T05:43:39;2.40;99.90
20845;DHT22;10583;49.084;8.646;2024-03-02T05:46:06;2.40;99.90
20845;DHT22;10583;49.084;8.646;2024-03-02T05:48:34;2.40;99.90
20845;DHT22;10583;49.084;8.646;2024-03-02T05:51:01;2.40;99.90
20845;DHT22;10583;49.084;8.646;2024-03-02T05:53:27;2.40;99.90
20845;DHT22;10583;49.084;8.646;2024-03-02T05:55:54;2.50;99.90
20845;DHT22;10583;49.084;8.646;2024-03-02T05:58:21;2.70;99.90
20845;DHT22;10583;49.084;8.646;2024-03-02T06:00:59;2.80;99.90
20845;DHT22;10583;49.084;8.646;2024-03-02T06:03:26;2.70;99.90
20845;DHT22;10583;49.084;8.646;2024-03-02T06:05:55;2.50;99.90
20845;DHT22;10583;49.084;8.646;2024-03-02T06:08:21;2.30;99.90
20845;DHT22;10583;49.084;8.646;2024-03-02T06:10:48;2.20;99.90
20845;DHT22;10583;49.084;8.646;2024-03-02T06:13:15;2.00;99.90
20845;DHT22;10583;49.084;8.646;2024-03-02T06:15:41;2.00;99.90
20845;DHT22;10583;49.084;8.646;2024-03-02T06:18:09;1.90;99.90
20845;DHT22;10583;49.084;8.646;2024-03-02T06:20:35;1.90;99.90
20845;DHT22;10583;49.084;8.646;2024-03-02T06:23:04;1.90;99.90
20845;DHT22;10583;49.084;8.646;2024-03-02T06:25:31;1.90;99.90
20845;DHT22;10583;49.084;8.646;2024-03-02T06:27:57;1.90;99.90
20845;DHT22;10583;49.084;8.646;2024-03-02T06:30:24;1.90;99.90
20845;DHT22;10583;49.084;8.646;2024-03-02T06:32:51;1.90;99.90
20845;DHT22;10583;49.084;8.646;2024-03-02T06:35:17;1.90;99.90
20845;DHT22;10583;49.084;8.646;2024-03-02T06:37:44;1.90;99.90
20845;DHT22;10583;49.084;8.646;2024-03-02T06:40:12;2.00;99.90
20845;DHT22;10583;49.084;8.646;2024-03-02T06:42:39;2.00;99.90
20845;DHT22;10583;49.084;8.646;2024-03-02T06:45:06;2.00;99.90
20845;DHT22;10583;49.084;8.646;2024-03-02T06:47:33;2.00;99.90
20845;DHT22;10583;49.084;8.646;2024-03-02T06:50:00;1.90;99.90
20845;DHT22;10583;49.084;8.646;2024-03-02T06:52:27;2.00;99.90
20845;DHT22;10583;49.084;8.646;2024-03-02T06:54:53;2.00;99.90
20845;DHT22;10583;49.084;8.646;2024-03-02T06:57:21;2.10;99.90
20845;DHT22;10583;49.084;8.646;2024-03-02T06:59:49;2.20;99.90
20845;DHT22;10583;49.084;8.646;2024-03-02T07:02:19;2.20;99.90
20845;DHT22;10583;49.084;8.646;2024-03-02T07:04:46;2.20;99.90
20845;DHT22;10583;49.084;8.646;2024-03-02T07:07:13;2.10;99.90
20845;DHT22;10583;49.084;8.646;2024-03-02T07:09:40;2.20;99.90
20845;DHT22;10583;49.084;8.646;2024-03-02T07:12:07;2.30;99.90
20845;DHT22;10583;49.084;8.646;2024-03-02T07:14:35;2.30;99.90
20845;DHT22;10583;49.084;8.646;2024-03-02T07:17:37;2.40;99.90
20845;DHT22;10583;49.084;8.646;2024-03-02T07:20:04;2.40;99.90
20845;DHT22;10583;49.084;8.646;2024-03-02T07:22:32;2.40;99.90
20845;DHT22;10583;49.084;8.646;2024-03-02T07:24:59;2.50;99.90
20845;DHT22;10583;49.084;8.646;2024-03-02T07:27:25;2.50;99.90
20845;DHT22;10583;49.084;8.646;2024-03-02T07:29:54;2.60;99.90
20845;DHT22;10583;49.084;8.646;2024-03-02T07:32:21;2.60;99.90
20845;DHT22;10583;49.084;8.646;2024-03-02T07:34:47;2.70;99.90
20845;DHT22;10583;49.084;8.646;2024-03-02T07:37:16;2.80;99.90
20845;DHT22;10583;49.084;8.646;2024-03-02T07:39:44;3.10;99.90
20845;DHT22;10583;49.084;8.646;2024-03-02T07:42:11;3.30;99.90
20845;DHT22;10583;49.084;8.646;2024-03-02T07:44:37;3.80;99.90
20845;DHT22;10583;49.084;8.646;2024-03-02T07:47:06;4.30;99.90
20845;DHT22;10583;49.084;8.646;2024-03-02T07:49:33;4.70;99.90
20845;DHT22;10583;49.084;8.646;2024-03-02T07:52:00;5.00;99.90
20845;DHT22;10583;49.084;8.646;2024-03-02T07:54:27;5.40;99.90
20845;DHT22;10583;49.084;8.646;2024-03-02T07:56:53;5.80;99.90
20845;DHT22;10583;49.084;8.646;2024-03-02T07:59:20;6.20;99.90
20845;DHT22;10583;49.084;8.646;2024-03-02T08:01:49;6.50;99.90
20845;DHT22;10583;49.084;8.646;2024-03-02T08:04:17;6.80;99.90
20845;DHT22;10583;49.084;8.646;2024-03-02T08:06:45;7.00;99.90
20845;DHT22;10583;49.084;8.646;2024-03-02T08:09:12;7.30;99.90
20845;DHT22;10583;49.084;8.646;2024-03-02T08:11:39;7.60;99.90
20845;DHT22;10583;49.084;8.646;2024-03-02T08:14:06;7.80;99.90
20845;DHT22;10583;49.084;8.646;2024-03-02T08:16:33;8.00;99.90
20845;DHT22;10583;49.084;8.646;2024-03-02T08:19:00;8.30;99.90
20845;DHT22;10583;49.084;8.646;2024-03-02T08:21:28;8.50;99.90
20845;DHT22;10583;49.084;8.646;2024-03-02T08:23:56;8.80;99.90
20845;DHT22;10583;49.084;8.646;2024-03-02T08:26:23;9.00;99.90
20845;DHT22;10583;49.084;8.646;2024-03-02T08:28:50;9.10;99.90
20845;DHT22;10583;49.084;8.646;2024-03-02T08:31:17;9.30;99.90
20845;DHT22;10583;49.084;8.646;2024-03-02T08:33:44;9.50;99.90
20845;DHT22;10583;49.084;8.646;2024-03-02T08:36:10;9.80;99.90
20845;DHT22;10583;49.084;8.646;2024-03-02T08:38:39;10.00;99.90
20845;DHT22;10583;49.084;8.646;2024-03-02T08:41:06;10.10;99.90
20845;DHT22;10583;49.084;8.646;2024-03-02T08:43:33;10.10;99.90
20845;DHT22;10583;49.084;8.646;2024-03-02T08:46:00;10.20;99.90
20845;DHT22;10583;49.084;8.646;2024-03-02T08:48:27;10.40;99.90
20845;DHT22;10583;49.084;8.646;2024-03-02T08:50:53;10.50;99.90
20845;DHT22;10583;49.084;8.646;2024-03-02T08:53:20;10.70;99.90
20845;DHT22;10583;49.084;8.646;2024-03-02T08:55:48;11.10;99.90
20845;DHT22;10583;49.084;8.646;2024-03-02T08:58:15;11.40;99.90
20845;DHT22;10583;49.084;8.646;2024-03-02T09:00:42;11.50;99.90
20845;DHT22;10583;49.084;8.646;2024-03-02T09:03:09;11.70;99.90
20845;DHT22;10583;49.084;8.646;2024-03-02T09:05:36;11.80;99.90
20845;DHT22;10583;49.084;8.646;2024-03-02T09:08:03;11.90;99.90
20845;DHT22;10583;49.084;8.646;2024-03-02T09:10:30;11.90;99.90
20845;DHT22;10583;49.084;8.646;2024-03-02T09:12:58;12.30;99.90
20845;DHT22;10583;49.084;8.646;2024-03-02T09:15:25;12.70;99.90
20845;DHT22;10583;49.084;8.646;2024-03-02T09:17:51;12.90;99.90
20845;DHT22;10583;49.084;8.646;2024-03-02T09:20:18;13.20;99.90
20845;DHT22;10583;49.084;8.646;2024-03-02T09:22:45;13.30;99.90
20845;DHT22;10583;49.084;8.646;2024-03-02T09:25:14;13.40;99.90
20845;DHT22;10583;49.084;8.646;2024-03-02T09:27:41;13.20;99.90
20845;DHT22;10583;49.084;8.646;2024-03-02T09:30:11;13.10;99.90
20845;DHT22;10583;49.084;8.646;2024-03-02T09:32:39;13.30;99.90
20845;DHT22;10583;49.084;8.646;2024-03-02T09:35:06;13.10;99.90
20845;DHT22;10583;49.084;8.646;2024-03-02T09:37:34;13.40;99.90
20845;DHT22;10583;49.084;8.646;2024-03-02T09:40:01;13.80;99.90
20845;DHT22;10583;49.084;8.646;2024-03-02T09:42:28;14.10;99.90
20845;DHT22;10583;49.084;8.646;2024-03-02T09:44:55;14.10;99.90
20845;DHT22;10583;49.084;8.646;2024-03-02T09:47:24;14.20;99.90
20845;DHT22;10583;49.084;8.646;2024-03-02T09:49:51;14.40;99.90
20845;DHT22;10583;49.084;8.646;2024-03-02T09:52:18;14.50;99.90
20845;DHT22;10583;49.084;8.646;2024-03-02T09:54:47;14.60;99.90
20845;DHT22;10583;49.084;8.646;2024-03-02T09:57:14;14.60;99.90
20845;DHT22;10583;49.084;8.646;2024-03-02T09:59:41;14.70;99.90
20845;DHT22;10583;49.084;8.646;2024-03-02T10:02:08;14.90;99.90
20845;DHT22;10583;49.084;8.646;2024-03-02T10:04:36;14.80;99.90
20845;DHT22;10583;49.084;8.646;2024-03-02T10:07:10;14.90;99.90
20845;DHT22;10583;49.084;8.646;2024-03-02T10:09:38;15.10;99.90
20845;DHT22;10583;49.084;8.646;2024-03-02T10:12:06;15.30;99.90
20845;DHT22;10583;49.084;8.646;2024-03-02T10:14:34;15.40;99.90
20845;DHT22;10583;49.084;8.646;2024-03-02T10:17:06;15.20;99.90
20845;DHT22;10583;49.084;8.646;2024-03-02T10:19:33;15.20;99.90
20845;DHT22;10583;49.084;8.646;2024-03-02T10:22:02;15.40;99.90
20845;DHT22;10583;49.084;8.646;2024-03-02T10:24:35;15.70;99.90
20845;DHT22;10583;49.084;8.646;2024-03-02T10:27:07;16.00;99.90
20845;DHT22;10583;49.084;8.646;2024-03-02T10:29:37;16.20;99.90
20845;DHT22;10583;49.084;8.646;2024-03-02T10:32:04;16.30;99.90
20845;DHT22;10583;49.084;8.646;2024-03-02T10:34:32;16.30;99.90
20845;DHT22;10583;49.084;8.646;2024-03-02T10:36:59;16.50;99.90
20845;DHT22;10583;49.084;8.646;2024-03-02T10:39:28;16.80;99.90
20845;DHT22;10583;49.084;8.646;2024-03-02T10:41:55;17.00;99.90
20845;DHT22;10583;49.084;8.646;2024-03-02T10:44:23;17.00;99.90
20845;DHT22;10583;49.084;8.646;2024-03-02T10:46:50;16.80;99.90
20845;DHT22;10583;49.084;8.646;2024-03-02T10:49:19;16.80;99.90
20845;DHT22;10583;49.084;8.646;2024-03-02T10:51:47;16.80;99.90
20845;DHT22;10583;49.084;8.646;2024-03-02T10:54:14;17.00;99.90
20845;DHT22;10583;49.084;8.646;2024-03-02T10:56:44;17.20;99.90
20845;DHT22;10583;49.084;8.646;2024-03-02T10:59:17;17.20;99.90
20845;DHT22;10583;49.084;8.646;2024-03-02T11:01:47;17.30;99.90
20845;DHT22;10583;49.084;8.646;2024-03-02T11:04:16;17.20;99.90
20845;DHT22;10583;49.084;8.646;2024-03-02T11:06:48;17.30;99.90
20845;DHT22;10583;49.084;8.646;2024-03-02T11:09:17;17.40;99.90
20845;DHT22;10583;49.084;8.646;2024-03-02T11:11:52;17.60;99.90
20845;DHT22;10583;49.084;8.646;2024-03-02T11:14:24;17.70;99.90
20845;DHT22;10583;49.084;8.646;2024-03-02T11:16:51;17.90;99.90
20845;DHT22;10583;49.084;8.646;2024-03-02T11:19:19;17.90;99.90
20845;DHT22;10583;49.084;8.646;2024-03-02T11:21:46;18.10;99.90
20845;DHT22;10583;49.084;8.646;2024-03-02T11:24:28;18.40;99.20
20845;DHT22;10583;49.084;8.646;2024-03-02T11:27:00;18.40;99.90
20845;DHT22;10583;49.084;8.646;2024-03-02T11:29:44;18.40;99.40
20845;DHT22;10583;49.084;8.646;2024-03-02T11:32:15;18.50;98.60
20845;DHT22;10583;49.084;8.646;2024-03-02T11:34:44;18.40;97.80
20845;DHT22;10583;49.084;8.646;2024-03-02T11:37:13;18.30;98.30
20845;DHT22;10583;49.084;8.646;2024-03-02T11:39:40;18.00;97.80
20845;DHT22;10583;49.084;8.646;2024-03-02T11:42:09;18.10;97.70
20845;DHT22;10583;49.084;8.646;2024-03-02T11:44:37;18.20;97.40
20845;DHT22;10583;49.084;8.646;2024-03-02T11:47:07;18.30;98.40
20845;DHT22;10583;49.084;8.646;2024-03-02T11:49:37;18.70;97.70
20845;DHT22;10583;49.084;8.646;2024-03-02T11:52:05;19.00;96.00
20845;DHT22;10583;49.084;8.646;2024-03-02T11:54:33;18.80;96.50
20845;DHT22;10583;49.084;8.646;2024-03-02T11:57:01;18.90;95.70
20845;DHT22;10583;49.084;8.646;2024-03-02T11:59:30;19.10;96.40
20845;DHT22;10583;49.084;8.646;2024-03-02T12:01:58;19.00;95.40
20845;DHT22;10583;49.084;8.646;2024-03-02T12:04:25;18.70;96.10
20845;DHT22;10583;49.084;8.646;2024-03-02T12:06:55;18.60;96.20
20845;DHT22;10583;49.084;8.646;2024-03-02T12:09:22;18.70;96.20
20845;DHT22;10583;49.084;8.646;2024-03-02T12:12:01;18.60;95.60
20845;DHT22;10583;49.084;8.646;2024-03-02T12:14:29;18.40;97.10
20845;DHT22;10583;49.084;8.646;2024-03-02T12:16:56;18.60;97.80
20845;DHT22;10583;49.084;8.646;2024-03-02T12:19:25;18.40;96.60
20845;DHT22;10583;49.084;8.646;2024-03-02T12:21:52;18.50;95.90
20845;DHT22;10583;49.084;8.646;2024-03-02T12:24:20;18.70;94.90
20845;DHT22;10583;49.084;8.646;2024-03-02T12:26:47;18.30;96.30
20845;DHT22;10583;49.084;8.646;2024-03-02T12:29:14;18.40;97.50
20845;DHT22;10583;49.084;8.646;2024-03-02T12:31:43;18.50;96.10
20845;DHT22;10583;49.084;8.646;2024-03-02T12:34:12;18.30;97.10
20845;DHT22;10583;49.084;8.646;2024-03-02T12:36:40;18.30;98.30
20845;DHT22;10583;49.084;8.646;2024-03-02T12:39:07;18.30;97.10
20845;DHT22;10583;49.084;8.646;2024-03-02T12:41:36;18.50;96.70
20845;DHT22;10583;49.084;8.646;2024-03-02T12:44:04;18.50;97.80
20845;DHT22;10583;49.084;8.646;2024-03-02T12:46:30;18.40;96.60
20845;DHT22;10583;49.084;8.646;2024-03-02T12:49:04;18.40;97.20
20845;DHT22;10583;49.084;8.646;2024-03-02T12:51:31;18.60;96.40
20845;DHT22;10583;49.084;8.646;2024-03-02T12:53:58;18.60;97.20
20845;DHT22;10583;49.084;8.646;2024-03-02T12:56:25;18.30;97.30
20845;DHT22;10583;49.084;8.646;2024-03-02T12:58:53;18.10;98.50
20845;DHT22;10583;49.084;8.646;2024-03-02T13:01:20;17.90;98.70
20845;DHT22;10583;49.084;8.646;2024-03-02T13:03:48;17.60;98.60
20845;DHT22;10583;49.084;8.646;2024-03-02T13:06:16;17.80;99.00
20845;DHT22;10583;49.084;8.646;2024-03-02T13:08:44;17.70;97.10
20845;DHT22;10583;49.084;8.646;2024-03-02T13:11:11;17.60;97.20
20845;DHT22;10583;49.084;8.646;2024-03-02T13:13:39;17.90;98.90
20845;DHT22;10583;49.084;8.646;2024-03-02T13:16:08;18.00;96.30
20845;DHT22;10583;49.084;8.646;2024-03-02T13:18:36;17.90;97.20
20845;DHT22;10583;49.084;8.646;2024-03-02T13:21:03;17.50;96.70
20845;DHT22;10583;49.084;8.646;2024-03-02T13:23:31;17.10;99.00
20845;DHT22;10583;49.084;8.646;2024-03-02T13:25:58;17.00;97.60
20845;DHT22;10583;49.084;8.646;2024-03-02T13:28:25;17.10;98.00
20845;DHT22;10583;49.084;8.646;2024-03-02T13:30:52;17.00;97.30
20845;DHT22;10583;49.084;8.646;2024-03-02T13:33:19;16.90;98.20
20845;DHT22;10583;49.084;8.646;2024-03-02T13:35:48;16.70;98.60
20845;DHT22;10583;49.084;8.646;2024-03-02T13:38:15;16.70;99.50
20845;DHT22;10583;49.084;8.646;2024-03-02T13:40:43;16.70;99.20
20845;DHT22;10583;49.084;8.646;2024-03-02T13:43:10;16.50;98.80
20845;DHT22;10583;49.084;8.646;2024-03-02T13:45:37;16.40;99.10
20845;DHT22;10583;49.084;8.646;2024-03-02T13:48:04;16.50;99.50
20845;DHT22;10583;49.084;8.646;2024-03-02T13:50:31;16.60;99.30
20845;DHT22;10583;49.084;8.646;2024-03-02T13:52:58;16.50;99.00
20845;DHT22;10583;49.084;8.646;2024-03-02T13:55:25;16.50;99.20
20845;DHT22;10583;49.084;8.646;2024-03-02T13:57:53;16.60;99.50
20845;DHT22;10583;49.084;8.646;2024-03-02T14:00:19;16.60;99.90
20845;DHT22;10583;49.084;8.646;2024-03-02T14:02:46;16.50;99.90
20845;DHT22;10583;49.084;8.646;2024-03-02T14:05:15;16.40;99.30
20845;DHT22;10583;49.084;8.646;2024-03-02T14:07:42;16.30;99.40
20845;DHT22;10583;49.084;8.646;2024-03-02T14:10:09;16.20;99.90
20845;DHT22;10583;49.084;8.646;2024-03-02T14:12:36;16.20;99.90
20845;DHT22;10583;49.084;8.646;2024-03-02T14:15:06;16.10;99.90
20845;DHT22;10583;49.084;8.646;2024-03-02T14:17:34;16.00;99.90
20845;DHT22;10583;49.084;8.646;2024-03-02T14:20:00;16.10;99.90
20845;DHT22;10583;49.084;8.646;2024-03-02T14:22:27;16.10;99.90
20845;DHT22;10583;49.084;8.646;2024-03-02T14:24:54;16.00;99.90
20845;DHT22;10583;49.084;8.646;2024-03-02T14:27:21;16.00;99.90
20845;DHT22;10583;49.084;8.646;2024-03-02T14:29:47;16.10;99.90
20845;DHT22;10583;49.084;8.646;2024-03-02T14:32:16;16.10;99.40
20845;DHT22;10583;49.084;8.646;2024-03-02T14:34:42;16.00;99.90
20845;DHT22;10583;49.084;8.646;2024-03-02T14:37:12;16.00;99.90
20845;DHT22;10583;49.084;8.646;2024-03-02T14:39:39;16.10;99.90
20845;DHT22;10583;49.084;8.646;2024-03-02T14:42:05;16.10;99.90
20845;DHT22;10583;49.084;8.646;2024-03-02T14:44:33;16.00;99.90
20845;DHT22;10583;49.084;8.646;2024-03-02T14:47:00;16.00;99.90
20845;DHT22;10583;49.084;8.646;2024-03-02T14:49:29;15.90;99.90
20845;DHT22;10583;49.084;8.646;2024-03-02T14:51:56;15.80;99.90
20845;DHT22;10583;49.084;8.646;2024-03-02T14:54:22;15.70;99.90
20845;DHT22;10583;49.084;8.646;2024-03-02T14:56:49;15.70;99.90
20845;DHT22;10583;49.084;8.646;2024-03-02T14:59:17;15.60;99.90
20845;DHT22;10583;49.084;8.646;2024-03-02T15:01:44;15.50;99.90
20845;DHT22;10583;49.084;8.646;2024-03-02T15:04:11;15.40;99.90
20845;DHT22;10583;49.084;8.646;2024-03-02T15:06:40;15.30;99.90
20845;DHT22;10583;49.084;8.646;2024-03-02T15:09:07;15.20;99.90
20845;DHT22;10583;49.084;8.646;2024-03-02T15:11:34;15.10;99.90
20845;DHT22;10583;49.084;8.646;2024-03-02T15:14:01;15.10;99.90
20845;DHT22;10583;49.084;8.646;2024-03-02T15:16:28;15.00;99.90
20845;DHT22;10583;49.084;8.646;2024-03-02T15:18:55;15.00;99.90
20845;DHT22;10583;49.084;8.646;2024-03-02T15:21:21;14.90;99.90
20845;DHT22;10583;49.084;8.646;2024-03-02T15:23:50;14.80;99.90
20845;DHT22;10583;49.084;8.646;2024-03-02T15:26:17;14.70;99.90
20845;DHT22;10583;49.084;8.646;2024-03-02T15:28:43;14.70;99.90
20845;DHT22;10583;49.084;8.646;2024-03-02T15:31:10;14.70;99.90
20845;DHT22;10583;49.084;8.646;2024-03-02T15:33:37;14.70;99.90
20845;DHT22;10583;49.084;8.646;2024-03-02T15:36:05;14.60;99.90
20845;DHT22;10583;49.084;8.646;2024-03-02T15:38:31;14.60;99.90
20845;DHT22;10583;49.084;8.646;2024-03-02T15:41:03;14.50;99.90
20845;DHT22;10583;49.084;8.646;2024-03-02T15:43:30;14.50;99.90